This is the latest recevied weather packets stored in our database for station/object DG0PX-12. If no packets are shown the sender has not sent any weather packets the latest 10 day(s).
| Time | Temp. | Humidity | Pressure | Rain* | Wind** | Luminosity | Snow |
|---|---|---|---|---|---|---|---|
| 1787415245 | 26.11° C | 33% | 952.9 hPa | - | - | - | - |
| 1787414345 | 30.56° C | 26% | 953.3 hPa | - | - | - | - |
| 1787413445 | 31.11° C | 27% | 953.1 hPa | - | - | - | - |
| 1787412545 | 26.67° C | 34% | 952.8 hPa | - | - | - | - |
| 1787411645 | 27.22° C | 33% | 952.9 hPa | - | - | - | - |
| 1787410745 | 32.22° C | 26% | 953.1 hPa | - | - | - | - |
| 1787409844 | 28.89° C | 30% | 953 hPa | - | - | - | - |
| 1787408944 | 27.22° C | 34% | 952.9 hPa | - | - | - | - |
| 1787408044 | 27.78° C | 34% | 952.7 hPa | - | - | - | - |
| 1787407144 | 27.22° C | 36% | 952.6 hPa | - | - | - | - |
| 1787406244 | 31.67° C | 30% | 952.7 hPa | - | - | - | - |
| 1787405344 | 30° C | 31% | 952.5 hPa | - | - | - | - |
| 1787404444 | 30° C | 33% | 952.4 hPa | - | - | - | - |
| 1787403543 | 28.89° C | 38% | 952.4 hPa | - | - | - | - |
| 1787402643 | 26.67° C | 45% | 952.2 hPa | - | - | - | - |
| 1787401743 | 22.22° C | 69% | 951.9 hPa | - | - | - | - |
| 1787400843 | 24.44° C | 38% | 951.8 hPa | - | - | - | - |
| 1787399943 | 28.89° C | 30% | 952.1 hPa | - | - | - | - |
| 1787399043 | 30.56° C | 28% | 952.2 hPa | - | - | - | - |
| 1787398143 | 28.89° C | 30% | 952.3 hPa | - | - | - | - |
| 1787397243 | 27.22° C | 31% | 952.2 hPa | - | - | - | - |
| 1787396343 | 27.22° C | 30% | 952.3 hPa | - | - | - | - |
| 1787395443 | 26.11° C | 32% | 952.5 hPa | - | - | - | - |
| 1787394543 | 22.78° C | 36% | 952.3 hPa | - | - | - | - |
| 1787393643 | 27.22° C | 33% | 952.2 hPa | - | - | - | - |
* Rain since midnight (hover to see other rain measurements)
** Current wind speed in m/s (hover to see current wind gust speed)